Time;durP1;ratioP1;P1;durP2;ratioP2;P2;SDS_P1;SDS_P2;PMS_P1;PMS_P2;Temp;Humidity;BMP_temperature;BMP_pressure;BME280_temperature;BME280_humidity;BME280_pressure;Samples;Min_cycle;Max_cycle;Signal;HPM_P1;HPM_P2
2022/07/20 00:00:40;;;;;;;5.57;2.97;;;;;;;28.20;34.37;100133.25;5033267;28;20408;-72
2022/07/20 00:03:08;;;;;;;3.33;3.07;;;;;;;28.12;34.66;100128.72;5033149;28;20875;-73
2022/07/20 00:05:33;;;;;;;5.68;3.17;;;;;;;28.17;35.01;100131.19;5032815;28;20403;-73
2022/07/20 00:07:59;;;;;;;5.30;3.53;;;;;;;28.15;35.15;100131.59;5032816;28;20762;-73
2022/07/20 00:13:08;;;;;;;5.20;3.20;;;;;;;28.11;35.53;100138.25;5032634;28;20394;-73
2022/07/20 00:15:34;;;;;;;3.38;3.10;;;;;;;28.07;35.45;100132.63;5032864;28;20387;-73
2022/07/20 00:17:59;;;;;;;4.63;3.20;;;;;;;28.08;35.90;100134.25;5032690;28;20492;-73
2022/07/20 00:20:25;;;;;;;3.53;3.00;;;;;;;28.05;35.96;100131.34;5032621;28;20401;-73
2022/07/20 00:22:50;;;;;;;5.20;3.10;;;;;;;28.02;36.49;100134.88;5032705;28;20530;-73
2022/07/20 00:25:16;;;;;;;4.63;3.37;;;;;;;28.00;36.55;100134.44;5032722;28;20410;-73
2022/07/20 00:27:41;;;;;;;3.87;3.07;;;;;;;27.95;36.69;100135.56;5032573;28;20401;-73
2022/07/20 00:30:07;;;;;;;3.60;3.30;;;;;;;27.91;37.20;100145.81;5031496;28;20402;-73
2022/07/20 00:32:37;;;;;;;5.22;3.42;;;;;;;27.88;37.66;100140.97;5031176;28;20482;-72
2022/07/20 00:35:07;;;;;;;3.30;3.00;;;;;;;27.85;37.74;100130.59;5032095;28;20414;-73
2022/07/20 00:37:33;;;;;;;3.87;3.07;;;;;;;27.83;37.63;100130.13;5032433;28;20413;-73
2022/07/20 00:39:58;;;;;;;7.30;3.50;;;;;;;27.79;37.63;100137.63;5032630;28;20403;-73
2022/07/20 00:42:23;;;;;;;6.53;3.30;;;;;;;27.71;37.82;100127.50;5032416;28;20406;-72
2022/07/20 00:44:49;;;;;;;3.53;3.22;;;;;;;27.65;38.15;100129.78;5032303;28;20395;-73
2022/07/20 00:47:14;;;;;;;6.15;3.72;;;;;;;27.63;38.48;100123.00;5031966;28;20502;-73
2022/07/20 00:49:39;;;;;;;5.57;3.03;;;;;;;27.63;38.43;100129.34;5032258;28;20390;-73
2022/07/20 00:52:05;;;;;;;6.00;3.33;;;;;;;27.64;38.54;100130.16;5031981;28;20403;-73
2022/07/20 00:54:31;;;;;;;4.90;3.05;;;;;;;27.62;38.79;100126.94;5032305;28;20387;-73
2022/07/20 00:56:56;;;;;;;4.53;3.63;;;;;;;27.57;38.61;100128.03;5031976;28;20411;-73
2022/07/20 00:59:22;;;;;;;5.67;3.70;;;;;;;27.55;39.15;100133.16;5032080;28;20402;-73
2022/07/20 01:01:47;;;;;;;3.47;3.20;;;;;;;27.53;39.11;100132.72;5031958;28;20805;-73
2022/07/20 01:04:13;;;;;;;4.13;3.27;;;;;;;27.48;39.24;100134.97;5031514;28;20417;-73
2022/07/20 01:06:38;;;;;;;6.63;3.40;;;;;;;27.45;39.07;100124.59;5032014;28;20417;-73
2022/07/20 01:09:03;;;;;;;4.13;3.40;;;;;;;27.44;39.23;100128.53;5031839;28;20397;-73
2022/07/20 01:11:29;;;;;;;4.73;3.80;;;;;;;27.43;39.54;100121.34;5031638;28;20427;-73
2022/07/20 01:14:03;;;;;;;4.20;3.20;;;;;;;27.38;39.52;100119.66;5031838;28;20770;-72
2022/07/20 01:16:28;;;;;;;4.03;3.30;;;;;;;27.32;39.82;100123.91;5031474;28;20560;-73
2022/07/20 01:18:53;;;;;;;3.77;2.83;;;;;;;27.26;40.20;100123.38;5031890;28;20482;-73
2022/07/20 01:21:19;;;;;;;3.77;3.27;;;;;;;27.20;40.16;100118.47;5030811;28;20395;-73
2022/07/20 01:23:44;;;;;;;3.57;3.27;;;;;;;27.10;40.37;100125.38;5031561;28;20908;-72
2022/07/20 01:26:09;;;;;;;5.50;3.50;;;;;;;27.05;40.75;100116.53;5031941;28;20380;-72
2022/07/20 01:28:34;;;;;;;3.67;3.33;;;;;;;27.03;41.27;100122.47;5031580;28;20484;-73
2022/07/20 01:31:00;;;;;;;4.23;3.03;;;;;;;27.01;41.78;100122.00;5047085;28;20387;-73
2022/07/20 01:33:25;;;;;;;4.27;3.20;;;;;;;27.02;41.79;100129.19;5032253;28;20395;-73
2022/07/20 01:35:51;;;;;;;8.93;3.78;;;;;;;26.98;41.72;100128.31;5031735;28;20476;-73
2022/07/20 01:38:16;;;;;;;4.80;3.70;;;;;;;26.95;41.74;100129.03;5031464;28;20415;-73
2022/07/20 01:40:41;;;;;;;4.65;3.28;;;;;;;26.93;41.85;100134.16;5047098;28;20461;-73
2022/07/20 01:43:07;;;;;;;5.20;3.58;;;;;;;26.91;41.58;100141.22;5031505;28;20754;-73
2022/07/20 01:45:33;;;;;;;3.83;3.17;;;;;;;26.90;41.48;100139.63;5031554;28;20387;-73
2022/07/20 01:47:58;;;;;;;5.15;3.90;;;;;;;26.87;41.76;100132.81;5031419;28;20486;-73
2022/07/20 01:50:24;;;;;;;6.50;4.00;;;;;;;26.79;41.64;100142.13;5033123;28;20525;-73
2022/07/20 01:52:49;;;;;;;5.80;3.90;;;;;;;26.75;41.60;100133.69;5035492;28;20394;-73
2022/07/20 01:55:15;;;;;;;5.77;3.80;;;;;;;26.71;41.87;100132.78;5029822;28;20403;-73
2022/07/20 01:57:42;;;;;;;4.72;3.53;;;;;;;26.69;41.41;100137.09;5028880;28;20486;-73
2022/07/20 02:00:10;;;;;;;3.92;3.38;;;;;;;26.64;41.44;100132.63;5028293;28;20414;-73
2022/07/20 02:02:35;;;;;;;4.88;3.65;;;;;;;26.60;40.92;100142.06;5031264;28;20389;-73
2022/07/20 02:05:00;;;;;;;4.15;3.65;;;;;;;26.56;40.96;100141.16;5030988;28;20399;-73
2022/07/20 02:07:26;;;;;;;5.43;4.10;;;;;;;26.51;41.11;100144.22;5030830;28;20415;-73
2022/07/20 02:09:51;;;;;;;3.75;3.20;;;;;;;26.45;40.83;100138.09;5031261;28;20789;-73
2022/07/20 02:12:16;;;;;;;5.47;4.07;;;;;;;26.45;41.05;100140.88;5031170;28;20395;-73
2022/07/20 02:14:41;;;;;;;4.73;3.40;;;;;;;26.45;40.85;100142.84;5031274;28;20391;-73
2022/07/20 02:17:07;;;;;;;6.35;3.67;;;;;;;26.44;40.71;100144.84;5030660;28;20475;-73
2022/07/20 02:19:32;;;;;;;5.30;3.60;;;;;;;26.42;40.80;100138.81;5031073;28;20391;-73
2022/07/20 02:21:57;;;;;;;5.00;3.67;;;;;;;26.38;40.80;100151.81;5031189;28;20445;-73
2022/07/20 02:24:23;;;;;;;5.50;3.92;;;;;;;26.34;40.63;100150.94;5031215;28;20388;-73
2022/07/20 02:26:48;;;;;;;4.47;3.78;;;;;;;26.32;40.65;100153.25;5030977;28;20391;-73
2022/07/20 02:29:13;;;;;;;7.73;3.83;;;;;;;26.31;40.74;100154.44;5031179;28;20401;-73
2022/07/20 02:31:38;;;;;;;5.03;4.00;;;;;;;26.31;40.75;100158.00;5031478;28;20410;-73
2022/07/20 02:34:04;;;;;;;4.83;3.47;;;;;;;26.24;41.03;100152.28;5034506;28;20399;-72
2022/07/20 02:36:29;;;;;;;3.73;3.50;;;;;;;26.27;40.87;100153.53;5034695;28;20433;-73
2022/07/20 02:38:54;;;;;;;5.70;3.80;;;;;;;26.21;41.33;100149.41;5034701;28;20430;-73
2022/07/20 02:41:19;;;;;;;3.63;3.33;;;;;;;26.22;41.52;100148.22;5034641;28;20397;-73
2022/07/20 02:43:45;;;;;;;6.37;3.60;;;;;;;26.18;41.95;100142.56;5034633;28;20418;-73
2022/07/20 02:46:10;;;;;;;4.77;3.40;;;;;;;26.11;42.36;100145.16;5034591;28;20383;-73
2022/07/20 02:48:35;;;;;;;6.53;3.20;;;;;;;26.05;42.40;100146.53;5034637;28;20418;-73
2022/07/20 02:51:01;;;;;;;6.13;3.63;;;;;;;25.93;42.85;100146.63;5034523;28;20403;-73
2022/07/20 02:53:26;;;;;;;3.97;3.37;;;;;;;25.87;43.12;100136.94;5034228;28;20398;-73
2022/07/20 02:55:51;;;;;;;5.82;3.80;;;;;;;25.75;43.20;100143.34;5034454;28;20514;-73
2022/07/20 02:58:17;;;;;;;4.32;3.92;;;;;;;25.74;43.16;100140.94;5034260;28;20502;-73
2022/07/20 03:00:42;;;;;;;3.67;3.38;;;;;;;25.72;43.37;100143.25;5033987;28;20475;-73
2022/07/20 03:03:08;;;;;;;5.90;3.80;;;;;;;25.56;44.00;100145.16;5034020;28;20405;-72
2022/07/20 03:05:34;;;;;;;3.50;3.30;;;;;;;25.54;43.94;100139.16;5034025;28;20423;-73
2022/07/20 03:07:59;;;;;;;7.07;3.60;;;;;;;25.52;44.35;100147.03;5034028;28;20746;-73
2022/07/20 03:10:25;;;;;;;4.57;3.70;;;;;;;25.51;44.53;100145.41;5034199;28;20391;-73
2022/07/20 03:12:50;;;;;;;5.80;3.73;;;;;;;25.46;44.56;100148.38;5034415;28;20398;-73
2022/07/20 03:15:16;;;;;;;6.70;3.83;;;;;;;25.38;44.70;100158.50;5032678;28;20411;-73
2022/07/20 03:17:46;;;;;;;5.80;3.72;;;;;;;25.30;44.51;100151.91;5032580;28;20925;-73
2022/07/20 03:20:13;;;;;;;4.27;3.87;;;;;;;25.30;44.81;100157.47;5033587;28;20882;-73
2022/07/20 03:22:39;;;;;;;7.22;3.88;;;;;;;25.27;45.09;100158.16;5033945;28;20387;-73
2022/07/20 03:25:05;;;;;;;8.18;3.95;;;;;;;25.22;44.57;100168.69;5033849;28;20395;-73
2022/07/20 03:27:30;;;;;;;4.13;3.83;;;;;;;25.17;44.89;100166.16;5033736;28;20390;-73
2022/07/20 03:29:55;;;;;;;6.50;4.13;;;;;;;25.07;45.07;100164.66;5033401;28;20403;-73
2022/07/20 03:32:21;;;;;;;4.60;3.97;;;;;;;25.02;45.06;100170.47;5033871;28;20482;-74
2022/07/20 03:34:46;;;;;;;4.93;3.60;;;;;;;24.93;45.01;100172.53;5033654;28;20555;-73
2022/07/20 03:37:11;;;;;;;6.43;4.53;;;;;;;24.89;45.42;100170.81;5033437;28;20432;-72
2022/07/20 03:39:36;;;;;;;7.30;4.50;;;;;;;24.91;45.17;100171.25;5033628;28;20476;-73
2022/07/20 03:42:02;;;;;;;6.72;3.90;;;;;;;24.92;45.47;100170.94;5033517;28;20414;-72
2022/07/20 03:44:27;;;;;;;5.10;3.55;;;;;;;24.97;45.17;100179.00;5047656;28;20423;-73
2022/07/20 03:46:52;;;;;;;4.47;4.10;;;;;;;24.99;45.05;100175.88;5033629;28;20808;-73
2022/07/20 03:49:17;;;;;;;4.87;3.83;;;;;;;25.01;44.75;100177.16;5026716;28;20407;-74
2022/07/20 03:51:43;;;;;;;5.67;3.57;;;;;;;25.05;44.40;100172.53;5033296;28;20899;-73
2022/07/20 03:54:08;;;;;;;4.43;4.03;;;;;;;25.02;44.69;100164.91;5033279;28;20406;-74
2022/07/20 03:56:39;;;;;;;4.80;3.80;;;;;;;25.07;44.52;100170.22;5031698;28;20406;-73
2022/07/20 03:59:05;;;;;;;6.32;3.80;;;;;;;25.09;44.60;100176.19;5032818;28;20478;-73
2022/07/20 04:01:30;;;;;;;5.70;4.10;;;;;;;25.04;44.72;100178.41;5033200;28;20834;-73
2022/07/20 04:03:56;;;;;;;9.90;4.10;;;;;;;24.95;45.06;100184.09;5033063;28;20395;-73
2022/07/20 04:06:21;;;;;;;7.33;3.80;;;;;;;24.95;45.20;100189.63;5032904;28;20415;-73
2022/07/20 04:08:48;;;;;;;4.50;3.60;;;;;;;24.93;45.54;100191.94;5032780;28;20399;-73
2022/07/20 04:11:13;;;;;;;6.45;4.10;;;;;;;24.95;45.48;100186.06;5032876;28;20460;-72
2022/07/20 04:13:38;;;;;;;4.77;3.40;;;;;;;24.93;45.38;100180.06;5032665;28;20486;-73
2022/07/20 04:16:04;;;;;;;4.33;3.90;;;;;;;24.92;45.57;100189.53;5032793;28;20396;-73
2022/07/20 04:18:29;;;;;;;6.37;4.50;;;;;;;24.96;45.30;100182.91;5032738;28;20496;-73
2022/07/20 04:20:54;;;;;;;7.57;3.73;;;;;;;24.96;45.74;100184.91;5032496;28;20403;-73
2022/07/20 04:23:20;;;;;;;8.13;4.17;;;;;;;24.93;45.98;100200.25;5032719;28;20403;-73
2022/07/20 04:25:45;;;;;;;7.63;4.00;;;;;;;24.75;46.21;100207.97;5032689;28;20391;-73
2022/07/20 04:28:10;;;;;;;6.47;4.17;;;;;;;24.44;47.03;100223.47;5032426;28;20859;-73
2022/07/20 04:30:36;;;;;;;7.00;4.00;;;;;;;24.22;47.52;100219.97;5031311;28;20436;-73
2022/07/20 04:33:01;;;;;;;5.97;4.20;;;;;;;24.12;47.21;100216.81;5032702;28;20391;-73
2022/07/20 04:35:26;;;;;;;6.50;4.00;;;;;;;24.11;47.25;100215.97;5032236;28;20409;-73
2022/07/20 04:37:51;;;;;;;6.13;3.80;;;;;;;24.14;47.20;100222.81;5032306;28;20513;-73
2022/07/20 04:40:17;;;;;;;5.67;4.10;;;;;;;24.12;47.04;100228.72;5032214;28;20403;-73
2022/07/20 04:42:42;;;;;;;5.10;3.60;;;;;;;24.15;47.08;100230.78;5030798;28;20418;-73
2022/07/20 04:45:08;;;;;;;5.35;4.35;;;;;;;24.16;47.03;100249.03;5030758;28;20878;-73
2022/07/20 04:47:34;;;;;;;4.28;3.92;;;;;;;24.03;47.40;100252.06;5031787;28;20823;-73
2022/07/20 04:49:59;;;;;;;4.88;4.00;;;;;;;24.15;47.34;100249.38;5035294;28;20546;-72
2022/07/20 04:52:24;;;;;;;4.70;3.90;;;;;;;24.13;46.88;100249.72;5038341;28;20401;-73
2022/07/20 04:54:49;;;;;;;6.50;4.07;;;;;;;24.16;46.84;100251.00;5032027;28;20513;-73
2022/07/20 04:57:15;;;;;;;4.60;4.30;;;;;;;24.16;47.02;100251.81;5030734;28;20755;-76
2022/07/20 04:59:40;;;;;;;6.43;4.23;;;;;;;24.12;47.10;100247.28;5030953;28;20421;-76
2022/07/20 05:02:05;;;;;;;6.30;4.13;;;;;;;24.14;46.75;100247.72;5031557;28;20395;-76
2022/07/20 05:04:31;;;;;;;10.67;4.40;;;;;;;24.14;46.54;100248.53;5030634;28;20457;-76
2022/07/20 05:06:56;;;;;;;6.30;4.20;;;;;;;24.15;46.26;100247.41;5031782;28;20928;-76
2022/07/20 05:09:21;;;;;;;8.00;4.37;;;;;;;24.15;46.24;100243.81;5031502;28;20402;-76
2022/07/20 05:11:47;;;;;;;5.73;3.70;;;;;;;24.14;46.06;100245.78;5032244;28;20403;-75
2022/07/20 05:14:13;;;;;;;6.05;4.25;;;;;;;24.18;45.94;100243.13;5031692;28;20509;-74
2022/07/20 05:16:38;;;;;;;4.70;3.70;;;;;;;24.34;45.56;100246.06;5030913;28;20415;-74
2022/07/20 05:19:04;;;;;;;11.00;4.00;;;;;;;24.47;45.65;100242.22;5031733;28;20421;-75
2022/07/20 05:21:29;;;;;;;5.22;3.80;;;;;;;24.45;45.66;100248.09;5046376;28;20418;-74
2022/07/20 05:23:55;;;;;;;8.63;4.00;;;;;;;24.56;45.70;100249.28;5031977;28;20414;-75
2022/07/20 05:26:20;;;;;;;4.53;3.93;;;;;;;24.57;45.61;100250.88;5041272;28;20481;-75
2022/07/20 05:28:45;;;;;;;4.83;3.97;;;;;;;24.57;45.92;100247.28;5044581;28;20397;-76
2022/07/20 05:31:13;;;;;;;7.00;4.20;;;;;;;24.56;45.81;100252.03;5044552;28;20409;-75
2022/07/20 05:33:40;;;;;;;8.90;4.03;;;;;;;24.60;45.64;100249.41;5041900;28;20495;-75
2022/07/20 05:36:05;;;;;;;4.93;4.53;;;;;;;24.62;45.47;100255.41;5027176;28;20415;-76
2022/07/20 05:38:31;;;;;;;7.60;3.70;;;;;;;24.67;45.38;100252.38;5028056;28;20411;-76
2022/07/20 05:40:56;;;;;;;6.90;3.90;;;;;;;24.59;45.58;100256.09;5031012;28;20482;-76
2022/07/20 05:43:22;;;;;;;4.23;3.83;;;;;;;24.61;45.65;100253.78;5045955;28;20403;-76
2022/07/20 05:45:48;;;;;;;7.70;3.97;;;;;;;24.65;45.47;100251.94;5025727;28;20427;-76
2022/07/20 05:48:14;;;;;;;5.80;3.87;;;;;;;24.68;45.25;100251.25;5027689;28;20470;-76
2022/07/20 05:50:40;;;;;;;4.22;3.70;;;;;;;24.71;45.20;100259.69;5030802;28;20801;-76
2022/07/20 05:53:06;;;;;;;7.55;3.80;;;;;;;24.76;45.19;100262.22;5031333;28;20399;-74
2022/07/20 05:55:33;;;;;;;8.60;3.92;;;;;;;24.87;44.73;100251.53;5012999;28;20395;-75
2022/07/20 05:57:58;;;;;;;5.43;3.75;;;;;;;24.90;44.27;100258.34;5030289;28;20836;-76
2022/07/20 06:00:23;;;;;;;6.63;4.23;;;;;;;24.95;44.16;100253.41;5031140;28;20407;-76
2022/07/20 06:02:49;;;;;;;8.47;4.20;;;;;;;24.98;44.02;100265.75;5031406;28;20418;-75
2022/07/20 06:05:14;;;;;;;4.23;3.93;;;;;;;25.01;44.20;100253.97;5030228;28;20533;-75
2022/07/20 06:07:39;;;;;;;5.60;4.47;;;;;;;25.08;44.26;100262.53;5031949;28;20426;-75
2022/07/20 06:10:05;;;;;;;11.50;5.27;;;;;;;25.13;44.30;100276.97;5035172;28;20423;-75
2022/07/20 06:12:30;;;;;;;7.47;4.32;;;;;;;25.15;44.03;100277.44;5044290;28;20426;-75
2022/07/20 06:14:56;;;;;;;6.70;4.90;;;;;;;25.12;43.85;100269.81;5035406;28;20415;-75
2022/07/20 06:17:21;;;;;;;7.90;4.60;;;;;;;25.20;43.61;100279.16;5033840;28;20877;-75
2022/07/20 06:19:46;;;;;;;6.63;4.23;;;;;;;25.20;44.09;100284.69;5033169;28;20403;-75
2022/07/20 06:22:11;;;;;;;9.73;4.57;;;;;;;25.19;44.17;100283.09;5034436;28;20402;-75
2022/07/20 06:24:37;;;;;;;9.93;4.63;;;;;;;25.22;43.94;100280.44;5033711;28;20403;-75
2022/07/20 06:27:02;;;;;;;4.70;4.23;;;;;;;25.36;43.90;100282.84;5034622;28;20401;-74
2022/07/20 06:29:27;;;;;;;8.17;4.87;;;;;;;25.39;43.63;100281.38;5034528;28;20397;-75
2022/07/20 06:31:53;;;;;;;6.93;4.47;;;;;;;25.44;44.25;100284.69;5033530;28;20719;-77
2022/07/20 06:34:18;;;;;;;7.87;4.40;;;;;;;25.46;44.22;100284.34;5033873;28;20403;-75
2022/07/20 06:36:45;;;;;;;8.00;4.07;;;;;;;25.50;44.35;100288.06;5034679;28;20402;-74
2022/07/20 06:39:10;;;;;;;6.15;4.38;;;;;;;25.59;44.41;100297.06;5032547;28;20399;-75
2022/07/20 06:41:36;;;;;;;7.37;4.00;;;;;;;25.64;44.57;100302.41;5034526;28;20395;-76
2022/07/20 06:44:01;;;;;;;7.47;4.27;;;;;;;25.66;44.66;100298.09;5048179;28;20786;-76
2022/07/20 06:46:26;;;;;;;5.37;4.50;;;;;;;25.74;44.51;100299.16;5034386;28;20399;-76
2022/07/20 06:48:52;;;;;;;4.23;3.80;;;;;;;25.79;44.35;100302.47;5033105;28;20433;-76
2022/07/20 06:51:17;;;;;;;6.13;3.90;;;;;;;25.86;44.32;100310.22;5034272;28;20454;-77
2022/07/20 06:53:42;;;;;;;4.63;4.03;;;;;;;25.94;44.08;100300.94;5034469;28;20414;-76
2022/07/20 06:56:07;;;;;;;7.10;4.13;;;;;;;26.01;44.16;100311.47;5033329;28;20415;-76
2022/07/20 06:58:33;;;;;;;6.13;4.10;;;;;;;26.06;44.01;100305.66;5033055;28;20470;-76
2022/07/20 07:00:58;;;;;;;4.10;3.70;;;;;;;26.14;43.50;100299.16;5034213;28;20446;-77
2022/07/20 07:03:23;;;;;;;5.30;4.00;;;;;;;26.21;43.18;100299.41;5034158;28;20395;-72
2022/07/20 07:05:48;;;;;;;8.80;4.10;;;;;;;26.29;43.32;100303.97;5033303;28;20780;-73
2022/07/20 07:08:14;;;;;;;8.97;4.17;;;;;;;26.36;43.07;100300.59;5033720;28;20449;-73
2022/07/20 07:10:39;;;;;;;9.47;4.03;;;;;;;26.42;43.07;100304.72;5034068;28;20882;-73
2022/07/20 07:13:04;;;;;;;5.10;3.67;;;;;;;26.48;43.28;100308.84;5033729;28;20391;-73
2022/07/20 07:15:30;;;;;;;6.53;3.83;;;;;;;26.53;43.21;100298.31;5034038;28;20403;-73
2022/07/20 07:17:55;;;;;;;6.93;4.20;;;;;;;26.57;43.16;100303.97;5032249;28;20421;-72
2022/07/20 07:20:21;;;;;;;5.78;3.75;;;;;;;26.62;43.13;100306.47;5032740;28;20434;-73
2022/07/20 07:22:46;;;;;;;7.93;4.20;;;;;;;26.68;42.51;100307.84;5033550;28;20988;-73
2022/07/20 07:25:11;;;;;;;7.23;3.50;;;;;;;26.75;42.63;100319.16;5048763;28;20399;-73
2022/07/20 07:27:37;;;;;;;4.37;3.90;;;;;;;26.80;42.14;100316.13;5032880;28;20877;-72
2022/07/20 07:30:03;;;;;;;5.07;3.70;;;;;;;26.86;42.07;100311.13;5034679;28;20842;-73
2022/07/20 07:32:28;;;;;;;5.35;3.50;;;;;;;26.93;41.90;100312.13;5034638;28;20391;-73
2022/07/20 07:34:53;;;;;;;4.83;3.43;;;;;;;27.01;41.67;100313.09;5033528;28;20391;-73
2022/07/20 07:37:19;;;;;;;4.93;3.88;;;;;;;27.10;41.78;100317.31;5033427;28;20480;-73
2022/07/20 07:39:44;;;;;;;7.30;3.60;;;;;;;27.17;41.53;100311.94;5033434;28;20402;-72
2022/07/20 07:42:09;;;;;;;4.10;3.38;;;;;;;27.20;41.56;100316.00;5033276;28;20486;-73
2022/07/20 07:44:35;;;;;;;4.28;3.28;;;;;;;27.25;41.25;100313.75;5033269;28;20801;-72
2022/07/20 07:47:00;;;;;;;4.20;3.80;;;;;;;27.33;41.50;100318.28;5032721;28;20490;-72
2022/07/20 07:49:26;;;;;;;3.55;3.25;;;;;;;27.41;41.33;100321.25;5032994;28;20890;-72
2022/07/20 07:51:51;;;;;;;8.13;3.60;;;;;;;27.46;41.26;100324.63;5033407;28;20391;-72
2022/07/20 07:54:16;;;;;;;12.63;3.90;;;;;;;27.54;40.82;100315.25;5033081;28;20901;-72
2022/07/20 07:56:42;;;;;;;4.13;3.60;;;;;;;27.61;40.46;100320.19;5032254;28;20411;-72
2022/07/20 07:59:08;;;;;;;4.03;3.50;;;;;;;27.67;40.20;100315.94;5031742;28;20439;-73
2022/07/20 08:01:34;;;;;;;5.78;3.42;;;;;;;27.71;39.82;100320.44;5032637;28;20454;-72
2022/07/20 08:04:00;;;;;;;5.45;3.13;;;;;;;27.82;39.41;100320.69;5026756;28;20501;-72
2022/07/20 08:06:25;;;;;;;6.70;3.90;;;;;;;27.92;39.32;100327.66;5032879;28;20946;-72
2022/07/20 08:08:50;;;;;;;3.50;3.30;;;;;;;27.98;38.69;100335.38;5019015;28;20420;-74
2022/07/20 08:11:17;;;;;;;6.27;3.37;;;;;;;28.05;38.44;100323.56;5029772;28;20891;-73
2022/07/20 08:13:42;;;;;;;6.72;4.35;;;;;;;28.09;38.38;100324.50;5032943;28;20890;-73
2022/07/20 08:16:07;;;;;;;4.90;3.50;;;;;;;28.15;37.86;100326.63;5032667;28;20418;-73
2022/07/20 08:18:35;;;;;;;4.20;3.00;;;;;;;28.25;38.40;100337.19;5032250;28;20426;-72
2022/07/20 08:21:01;;;;;;;4.05;3.72;;;;;;;28.38;38.16;100334.25;5035891;28;20468;-73
2022/07/20 08:23:26;;;;;;;5.30;3.90;;;;;;;28.48;38.22;100334.47;5030578;28;20497;-73
2022/07/20 08:25:51;;;;;;;6.47;4.00;;;;;;;28.59;38.27;100341.03;5026805;28;20419;-73
2022/07/20 08:28:20;;;;;;;5.77;4.50;;;;;;;28.64;38.17;100335.19;5028488;28;20415;-73
2022/07/20 08:30:49;;;;;;;6.22;4.05;;;;;;;28.73;38.54;100337.75;5028203;28;20411;-73
2022/07/20 08:33:14;;;;;;;5.45;4.80;;;;;;;28.84;38.44;100341.56;5027627;28;20414;-73
2022/07/20 08:35:40;;;;;;;6.63;5.73;;;;;;;28.94;38.88;100346.53;5029955;28;20414;-74
2022/07/20 08:38:06;;;;;;;9.27;5.75;;;;;;;29.07;38.90;100345.19;5032221;28;20953;-74
2022/07/20 08:40:32;;;;;;;9.23;6.35;;;;;;;29.17;39.01;100347.34;5030357;28;20548;-73
2022/07/20 08:42:57;;;;;;;5.90;5.30;;;;;;;29.33;39.18;100350.84;5031044;28;20756;-73
2022/07/20 08:45:23;;;;;;;8.40;7.17;;;;;;;29.46;39.03;100345.88;5046739;28;20414;-72
2022/07/20 08:47:49;;;;;;;11.27;6.63;;;;;;;29.58;39.31;100337.25;5033809;28;20393;-73
2022/07/20 08:50:21;;;;;;;9.45;7.75;;;;;;;29.71;39.43;100351.81;5029065;28;20407;-73
2022/07/20 08:52:46;;;;;;;12.53;10.43;;;;;;;29.83;39.66;100348.88;5032164;28;20396;-73
2022/07/20 08:55:12;;;;;;;16.50;11.13;;;;;;;29.95;39.70;100350.59;5029956;28;20411;-73
2022/07/20 08:57:37;;;;;;;15.93;11.40;;;;;;;30.03;39.35;100350.34;5040115;28;20783;-73
2022/07/20 09:00:04;;;;;;;14.30;10.40;;;;;;;30.09;39.14;100351.63;5034949;28;20464;-73
2022/07/20 09:02:29;;;;;;;13.10;11.50;;;;;;;30.20;39.21;100354.53;5026959;28;20489;-73
2022/07/20 09:04:57;;;;;;;12.17;10.40;;;;;;;30.30;39.15;100342.69;5028577;28;20489;-72
2022/07/20 09:07:46;;;;;;;15.93;10.68;;;;;;;30.40;39.02;100353.22;5030927;28;20428;-73
2022/07/20 09:10:17;;;;;;;13.02;10.40;;;;;;;30.48;38.51;100340.97;5046013;28;21105;-72
2022/07/20 09:12:57;;;;;;;13.07;10.63;;;;;;;30.59;38.68;100339.09;5026526;28;20408;-73
2022/07/20 09:15:45;;;;;;;14.15;10.57;;;;;;;30.69;38.43;100332.81;5025016;28;20433;-73
2022/07/20 09:18:17;;;;;;;15.15;10.80;;;;;;;30.84;38.32;100334.56;5016368;28;20419;-73
2022/07/20 09:20:49;;;;;;;14.88;11.27;;;;;;;30.98;37.93;100347.13;5031033;28;20406;-73
2022/07/20 09:23:21;;;;;;;12.90;10.50;;;;;;;31.07;38.21;100353.22;5031326;28;20398;-72
2022/07/20 09:25:53;;;;;;;14.20;10.95;;;;;;;31.14;38.19;100361.69;5030893;28;20412;-73
2022/07/20 09:28:20;;;;;;;10.48;8.85;;;;;;;31.30;37.66;100360.22;5030548;28;20426;-73
2022/07/20 09:30:53;;;;;;;14.27;11.43;;;;;;;31.42;37.40;100352.72;5030465;28;20582;-73
2022/07/20 09:33:30;;;;;;;16.52;11.27;;;;;;;31.50;37.46;100355.22;5030712;28;20403;-72
2022/07/20 09:35:56;;;;;;;13.50;10.43;;;;;;;31.54;37.68;100356.06;5029247;28;20945;-72
2022/07/20 09:38:37;;;;;;;13.77;10.50;;;;;;;31.64;37.54;100354.53;5031376;28;20417;-72
2022/07/20 09:41:04;;;;;;;14.17;10.13;;;;;;;31.80;37.12;100353.03;5029534;28;20415;-72
2022/07/20 09:43:35;;;;;;;10.77;9.32;;;;;;;31.99;36.86;100360.34;5031054;28;20402;-72
2022/07/20 09:46:15;;;;;;;12.32;9.15;;;;;;;32.14;36.52;100355.69;5030285;28;20411;-72
2022/07/20 09:48:46;;;;;;;10.27;8.93;;;;;;;32.26;36.61;100347.72;5055431;28;20414;-72
2022/07/20 09:51:23;;;;;;;16.45;10.93;;;;;;;32.38;36.09;100355.78;5028634;28;20477;-72
2022/07/20 09:53:49;;;;;;;11.80;10.30;;;;;;;32.49;35.87;100347.41;5031018;28;20383;-73
2022/07/20 09:56:17;;;;;;;12.77;9.90;;;;;;;32.65;35.75;100353.50;5022602;28;20411;-73
2022/07/20 09:58:48;;;;;;;14.93;10.30;;;;;;;32.82;35.83;100354.75;5030534;28;20399;-73
2022/07/20 10:01:27;;;;;;;14.00;10.68;;;;;;;33.04;35.66;100352.78;5029082;28;20514;-72
2022/07/20 10:03:55;;;;;;;13.27;9.98;;;;;;;33.42;35.03;100360.47;5026622;28;20406;-73
2022/07/20 10:06:22;;;;;;;12.80;9.30;;;;;;;33.95;34.12;100362.44;5030657;28;20502;-72
2022/07/20 10:08:49;;;;;;;11.52;10.10;;;;;;;34.26;33.53;100365.19;5029590;28;20522;-72
2022/07/20 10:11:17;;;;;;;10.10;8.85;;;;;;;34.70;32.70;100355.38;5030981;28;20395;-72
2022/07/20 10:13:43;;;;;;;13.13;10.73;;;;;;;35.41;31.77;100350.84;5029670;28;20980;-73
2022/07/20 10:16:27;;;;;;;10.73;9.55;;;;;;;36.30;30.58;100361.28;5028797;28;20411;-72
2022/07/20 10:18:54;;;;;;;13.40;10.18;;;;;;;37.06;29.17;100357.06;5028324;28;20415;-73
2022/07/20 10:21:33;;;;;;;12.65;10.05;;;;;;;37.70;28.34;100356.81;5030347;28;20410;-73
2022/07/20 10:24:22;;;;;;;14.60;10.37;;;;;;;38.24;27.63;100357.41;5029465;28;20446;-73
2022/07/20 10:26:50;;;;;;;11.30;10.00;;;;;;;38.80;26.94;100361.06;5023300;28;20412;-73
2022/07/20 10:29:27;;;;;;;11.48;10.32;;;;;;;39.65;25.68;100365.50;5030120;28;20498;-73
2022/07/20 10:32:16;;;;;;;14.18;10.05;;;;;;;40.30;24.84;100363.34;5024988;28;20409;-73
2022/07/20 10:34:44;;;;;;;12.30;10.55;;;;;;;40.92;24.22;100373.25;5027851;28;20456;-72
2022/07/20 10:37:26;;;;;;;14.18;10.25;;;;;;;41.38;23.67;100379.53;5028476;28;20399;-73
2022/07/20 10:40:13;;;;;;;12.77;10.30;;;;;;;41.75;23.20;100375.03;5035548;28;20420;-73
2022/07/20 10:42:40;;;;;;;13.60;9.13;;;;;;;42.23;21.92;100383.06;5016198;28;20407;-73
2022/07/20 10:45:14;;;;;;;10.45;9.18;;;;;;;42.19;22.21;100378.78;5025394;28;20416;-72
2022/07/20 10:47:45;;;;;;;12.93;9.50;;;;;;;42.38;21.65;100380.50;5028138;28;20423;-73
2022/07/20 10:50:18;;;;;;;13.35;9.60;;;;;;;42.35;21.93;100379.34;5022351;28;20399;-70
2022/07/20 10:52:46;;;;;;;12.03;9.50;;;;;;;42.48;21.96;100379.31;5029329;28;20494;-70
2022/07/20 10:55:37;;;;;;;11.60;9.40;;;;;;;42.55;21.96;100378.22;5033221;28;20414;-72
2022/07/20 10:58:05;;;;;;;15.52;9.80;;;;;;;42.88;21.82;100380.16;5030190;28;20418;-72
2022/07/20 11:00:42;;;;;;;11.05;10.00;;;;;;;43.12;21.06;100388.22;5019998;28;20447;-70
2022/07/20 11:03:15;;;;;;;12.15;9.50;;;;;;;43.41;21.09;100388.66;5031189;28;20886;-70
2022/07/20 11:05:41;;;;;;;17.25;9.45;;;;;;;43.60;20.34;100376.03;5033316;28;20778;-70
2022/07/20 11:08:08;;;;;;;9.95;8.65;;;;;;;43.89;20.27;100379.25;5031383;28;20462;-70
2022/07/20 11:10:34;;;;;;;9.77;8.70;;;;;;;43.87;20.36;100373.22;5034012;28;20390;-70
2022/07/20 11:13:08;;;;;;;9.70;8.82;;;;;;;43.97;20.34;100370.38;5026557;28;20480;-70
2022/07/20 11:15:43;;;;;;;9.45;8.60;;;;;;;44.10;20.37;100368.16;5026601;28;20418;-70
2022/07/20 11:18:10;;;;;;;11.32;8.82;;;;;;;44.09;19.54;100370.22;5031642;28;20411;-70
2022/07/20 11:20:48;;;;;;;14.25;9.07;;;;;;;44.11;19.50;100366.84;5041328;28;20888;-71
2022/07/20 11:23:14;;;;;;;11.13;8.70;;;;;;;44.13;19.56;100364.34;5035309;28;20820;-70